sensor_id;sensor_type;location;lat;lon;timestamp;P1;durP1;ratioP1;P2;durP2;ratioP2
25045;SDS011;13044;49.304;12.840;2024-03-02T00:00:20;29.60;;;17.80;;
25045;SDS011;13044;49.304;12.840;2024-03-02T00:02:49;30.95;;;17.50;;
25045;SDS011;13044;49.304;12.840;2024-03-02T00:05:20;29.45;;;17.17;;
25045;SDS011;13044;49.304;12.840;2024-03-02T00:07:55;29.85;;;17.35;;
25045;SDS011;13044;49.304;12.840;2024-03-02T00:10:27;26.48;;;16.33;;
25045;SDS011;13044;49.304;12.840;2024-03-02T00:13:06;25.75;;;16.10;;
25045;SDS011;13044;49.304;12.840;2024-03-02T00:18:16;25.35;;;15.45;;
25045;SDS011;13044;49.304;12.840;2024-03-02T00:21:06;26.50;;;16.65;;
25045;SDS011;13044;49.304;12.840;2024-03-02T00:23:36;27.42;;;16.63;;
25045;SDS011;13044;49.304;12.840;2024-03-02T00:26:04;26.80;;;16.08;;
25045;SDS011;13044;49.304;12.840;2024-03-02T00:28:35;25.88;;;15.88;;
25045;SDS011;13044;49.304;12.840;2024-03-02T00:31:10;28.65;;;16.85;;
25045;SDS011;13044;49.304;12.840;2024-03-02T00:33:46;27.58;;;16.80;;
25045;SDS011;13044;49.304;12.840;2024-03-02T00:36:15;28.60;;;17.23;;
25045;SDS011;13044;49.304;12.840;2024-03-02T00:38:53;28.15;;;16.80;;
25045;SDS011;13044;49.304;12.840;2024-03-02T00:41:21;29.48;;;16.10;;
25045;SDS011;13044;49.304;12.840;2024-03-02T00:44:03;28.23;;;17.35;;
25045;SDS011;13044;49.304;12.840;2024-03-02T00:46:41;28.02;;;17.23;;
25045;SDS011;13044;49.304;12.840;2024-03-02T00:49:20;25.80;;;14.80;;
25045;SDS011;13044;49.304;12.840;2024-03-02T00:51:50;26.35;;;15.52;;
25045;SDS011;13044;49.304;12.840;2024-03-02T00:54:19;24.40;;;14.70;;
25045;SDS011;13044;49.304;12.840;2024-03-02T00:56:52;24.25;;;14.63;;
25045;SDS011;13044;49.304;12.840;2024-03-02T00:59:22;23.20;;;14.30;;
25045;SDS011;13044;49.304;12.840;2024-03-02T01:01:49;23.98;;;14.55;;
25045;SDS011;13044;49.304;12.840;2024-03-02T01:04:16;22.90;;;14.30;;
25045;SDS011;13044;49.304;12.840;2024-03-02T01:06:43;25.05;;;14.27;;
25045;SDS011;13044;49.304;12.840;2024-03-02T01:09:10;20.92;;;13.35;;
25045;SDS011;13044;49.304;12.840;2024-03-02T01:11:38;22.80;;;12.95;;
25045;SDS011;13044;49.304;12.840;2024-03-02T01:14:05;25.40;;;15.05;;
25045;SDS011;13044;49.304;12.840;2024-03-02T01:16:32;22.00;;;14.35;;
25045;SDS011;13044;49.304;12.840;2024-03-02T01:18:59;23.33;;;14.40;;
25045;SDS011;13044;49.304;12.840;2024-03-02T01:21:27;21.63;;;14.32;;
25045;SDS011;13044;49.304;12.840;2024-03-02T01:23:53;21.27;;;14.25;;
25045;SDS011;13044;49.304;12.840;2024-03-02T01:26:20;25.65;;;14.85;;
25045;SDS011;13044;49.304;12.840;2024-03-02T01:28:47;22.50;;;14.55;;
25045;SDS011;13044;49.304;12.840;2024-03-02T01:31:14;19.70;;;13.25;;
25045;SDS011;13044;49.304;12.840;2024-03-02T01:33:41;20.63;;;14.35;;
25045;SDS011;13044;49.304;12.840;2024-03-02T01:36:08;22.10;;;14.10;;
25045;SDS011;13044;49.304;12.840;2024-03-02T01:38:35;20.83;;;13.82;;
25045;SDS011;13044;49.304;12.840;2024-03-02T01:41:02;18.88;;;13.05;;
25045;SDS011;13044;49.304;12.840;2024-03-02T01:43:29;20.50;;;13.63;;
25045;SDS011;13044;49.304;12.840;2024-03-02T01:45:56;21.45;;;14.02;;
25045;SDS011;13044;49.304;12.840;2024-03-02T01:48:23;23.27;;;14.07;;
25045;SDS011;13044;49.304;12.840;2024-03-02T01:50:50;20.88;;;13.13;;
25045;SDS011;13044;49.304;12.840;2024-03-02T01:53:17;22.90;;;13.85;;
25045;SDS011;13044;49.304;12.840;2024-03-02T01:55:45;22.30;;;15.05;;
25045;SDS011;13044;49.304;12.840;2024-03-02T01:58:12;22.38;;;14.35;;
25045;SDS011;13044;49.304;12.840;2024-03-02T02:00:38;23.95;;;15.35;;
25045;SDS011;13044;49.304;12.840;2024-03-02T02:03:06;21.75;;;13.75;;
25045;SDS011;13044;49.304;12.840;2024-03-02T02:05:33;20.33;;;13.55;;
25045;SDS011;13044;49.304;12.840;2024-03-02T02:08:01;24.92;;;15.02;;
25045;SDS011;13044;49.304;12.840;2024-03-02T02:10:28;21.70;;;14.15;;
25045;SDS011;13044;49.304;12.840;2024-03-02T02:12:55;21.42;;;14.65;;
25045;SDS011;13044;49.304;12.840;2024-03-02T02:17:53;23.05;;;13.50;;
25045;SDS011;13044;49.304;12.840;2024-03-02T02:20:24;25.65;;;14.73;;
25045;SDS011;13044;49.304;12.840;2024-03-02T02:25:26;20.58;;;13.15;;
25045;SDS011;13044;49.304;12.840;2024-03-02T02:27:54;18.23;;;12.60;;
25045;SDS011;13044;49.304;12.840;2024-03-02T02:30:24;22.60;;;14.13;;
25045;SDS011;13044;49.304;12.840;2024-03-02T02:32:53;20.73;;;13.43;;
25045;SDS011;13044;49.304;12.840;2024-03-02T02:35:20;19.00;;;13.40;;
25045;SDS011;13044;49.304;12.840;2024-03-02T02:37:48;21.08;;;14.10;;
25045;SDS011;13044;49.304;12.840;2024-03-02T02:40:16;18.90;;;12.63;;
25045;SDS011;13044;49.304;12.840;2024-03-02T02:42:45;20.67;;;13.45;;
25045;SDS011;13044;49.304;12.840;2024-03-02T02:45:13;20.45;;;13.98;;
25045;SDS011;13044;49.304;12.840;2024-03-02T02:47:41;20.88;;;13.43;;
25045;SDS011;13044;49.304;12.840;2024-03-02T02:50:10;20.95;;;13.05;;
25045;SDS011;13044;49.304;12.840;2024-03-02T02:52:39;19.55;;;12.60;;
25045;SDS011;13044;49.304;12.840;2024-03-02T02:55:08;19.88;;;13.52;;
25045;SDS011;13044;49.304;12.840;2024-03-02T02:57:40;20.35;;;13.63;;
25045;SDS011;13044;49.304;12.840;2024-03-02T03:00:13;18.45;;;12.85;;
25045;SDS011;13044;49.304;12.840;2024-03-02T03:02:44;19.40;;;13.18;;
25045;SDS011;13044;49.304;12.840;2024-03-02T03:05:14;21.95;;;14.50;;
25045;SDS011;13044;49.304;12.840;2024-03-02T03:07:42;19.88;;;14.38;;
25045;SDS011;13044;49.304;12.840;2024-03-02T03:10:10;21.50;;;14.43;;
25045;SDS011;13044;49.304;12.840;2024-03-02T03:12:37;22.00;;;14.10;;
25045;SDS011;13044;49.304;12.840;2024-03-02T03:15:04;21.63;;;14.55;;
25045;SDS011;13044;49.304;12.840;2024-03-02T03:17:33;20.52;;;13.30;;
25045;SDS011;13044;49.304;12.840;2024-03-02T03:20:01;21.63;;;13.50;;
25045;SDS011;13044;49.304;12.840;2024-03-02T03:22:30;19.27;;;12.95;;
25045;SDS011;13044;49.304;12.840;2024-03-02T03:24:58;21.60;;;14.18;;
25045;SDS011;13044;49.304;12.840;2024-03-02T03:27:26;21.67;;;14.52;;
25045;SDS011;13044;49.304;12.840;2024-03-02T03:29:53;19.13;;;13.32;;
25045;SDS011;13044;49.304;12.840;2024-03-02T03:32:20;20.88;;;14.43;;
25045;SDS011;13044;49.304;12.840;2024-03-02T03:34:48;21.33;;;14.30;;
25045;SDS011;13044;49.304;12.840;2024-03-02T03:37:15;21.70;;;14.98;;
25045;SDS011;13044;49.304;12.840;2024-03-02T03:39:42;23.38;;;14.15;;
25045;SDS011;13044;49.304;12.840;2024-03-02T03:42:09;23.95;;;15.90;;
25045;SDS011;13044;49.304;12.840;2024-03-02T03:44:36;21.15;;;14.27;;
25045;SDS011;13044;49.304;12.840;2024-03-02T03:47:02;19.60;;;13.55;;
25045;SDS011;13044;49.304;12.840;2024-03-02T03:49:29;21.60;;;14.10;;
25045;SDS011;13044;49.304;12.840;2024-03-02T03:51:56;23.17;;;15.40;;
25045;SDS011;13044;49.304;12.840;2024-03-02T03:54:23;25.45;;;16.92;;
25045;SDS011;13044;49.304;12.840;2024-03-02T03:56:50;24.85;;;15.98;;
25045;SDS011;13044;49.304;12.840;2024-03-02T03:59:17;22.45;;;15.38;;
25045;SDS011;13044;49.304;12.840;2024-03-02T04:01:44;26.42;;;16.67;;
25045;SDS011;13044;49.304;12.840;2024-03-02T04:04:11;26.05;;;17.75;;
25045;SDS011;13044;49.304;12.840;2024-03-02T04:06:38;21.60;;;13.73;;
25045;SDS011;13044;49.304;12.840;2024-03-02T04:09:05;21.58;;;14.32;;
25045;SDS011;13044;49.304;12.840;2024-03-02T04:11:31;21.63;;;14.57;;
25045;SDS011;13044;49.304;12.840;2024-03-02T04:13:58;21.10;;;13.80;;
25045;SDS011;13044;49.304;12.840;2024-03-02T04:16:25;20.77;;;14.05;;
25045;SDS011;13044;49.304;12.840;2024-03-02T04:18:52;20.05;;;13.95;;
25045;SDS011;13044;49.304;12.840;2024-03-02T04:21:19;19.30;;;14.05;;
25045;SDS011;13044;49.304;12.840;2024-03-02T04:23:46;22.23;;;15.10;;
25045;SDS011;13044;49.304;12.840;2024-03-02T04:26:13;21.10;;;15.00;;
25045;SDS011;13044;49.304;12.840;2024-03-02T04:28:45;22.73;;;15.37;;
25045;SDS011;13044;49.304;12.840;2024-03-02T04:31:12;24.50;;;15.48;;
25045;SDS011;13044;49.304;12.840;2024-03-02T04:33:41;19.48;;;13.52;;
25045;SDS011;13044;49.304;12.840;2024-03-02T04:36:08;20.80;;;14.18;;
25045;SDS011;13044;49.304;12.840;2024-03-02T04:38:36;21.92;;;15.02;;
25045;SDS011;13044;49.304;12.840;2024-03-02T04:41:04;22.60;;;14.73;;
25045;SDS011;13044;49.304;12.840;2024-03-02T04:43:32;20.75;;;13.93;;
25045;SDS011;13044;49.304;12.840;2024-03-02T04:46:00;21.02;;;14.30;;
25045;SDS011;13044;49.304;12.840;2024-03-02T04:48:27;20.70;;;13.88;;
25045;SDS011;13044;49.304;12.840;2024-03-02T04:50:54;19.98;;;14.27;;
25045;SDS011;13044;49.304;12.840;2024-03-02T04:53:21;21.35;;;14.55;;
25045;SDS011;13044;49.304;12.840;2024-03-02T04:55:48;20.90;;;14.77;;
25045;SDS011;13044;49.304;12.840;2024-03-02T04:58:33;21.30;;;14.05;;
25045;SDS011;13044;49.304;12.840;2024-03-02T05:01:00;19.08;;;13.30;;
25045;SDS011;13044;49.304;12.840;2024-03-02T05:03:27;22.05;;;14.57;;
25045;SDS011;13044;49.304;12.840;2024-03-02T05:05:54;23.92;;;16.38;;
25045;SDS011;13044;49.304;12.840;2024-03-02T05:08:22;22.27;;;14.75;;
25045;SDS011;13044;49.304;12.840;2024-03-02T05:10:49;22.17;;;14.60;;
25045;SDS011;13044;49.304;12.840;2024-03-02T05:13:16;22.50;;;15.18;;
25045;SDS011;13044;49.304;12.840;2024-03-02T05:15:43;23.65;;;15.25;;
25045;SDS011;13044;49.304;12.840;2024-03-02T05:18:11;23.45;;;14.20;;
25045;SDS011;13044;49.304;12.840;2024-03-02T05:20:37;21.58;;;14.15;;
25045;SDS011;13044;49.304;12.840;2024-03-02T05:23:04;21.00;;;14.07;;
25045;SDS011;13044;49.304;12.840;2024-03-02T05:25:31;23.52;;;14.90;;
25045;SDS011;13044;49.304;12.840;2024-03-02T05:27:59;20.13;;;13.93;;
25045;SDS011;13044;49.304;12.840;2024-03-02T05:30:25;22.02;;;14.50;;
25045;SDS011;13044;49.304;12.840;2024-03-02T05:32:53;21.58;;;14.65;;
25045;SDS011;13044;49.304;12.840;2024-03-02T05:35:19;19.75;;;13.63;;
25045;SDS011;13044;49.304;12.840;2024-03-02T05:37:46;20.63;;;13.40;;
25045;SDS011;13044;49.304;12.840;2024-03-02T05:40:13;20.17;;;13.77;;
25045;SDS011;13044;49.304;12.840;2024-03-02T05:42:40;21.70;;;14.07;;
25045;SDS011;13044;49.304;12.840;2024-03-02T05:45:08;22.42;;;14.70;;
25045;SDS011;13044;49.304;12.840;2024-03-02T05:47:34;22.40;;;15.45;;
25045;SDS011;13044;49.304;12.840;2024-03-02T05:50:02;22.30;;;14.60;;
25045;SDS011;13044;49.304;12.840;2024-03-02T05:52:30;20.63;;;13.63;;
25045;SDS011;13044;49.304;12.840;2024-03-02T05:54:57;26.98;;;16.83;;
25045;SDS011;13044;49.304;12.840;2024-03-02T05:57:23;21.27;;;13.75;;
25045;SDS011;13044;49.304;12.840;2024-03-02T06:00:09;21.65;;;14.50;;
25045;SDS011;13044;49.304;12.840;2024-03-02T06:02:40;20.77;;;14.52;;
25045;SDS011;13044;49.304;12.840;2024-03-02T06:05:07;23.33;;;14.57;;
25045;SDS011;13044;49.304;12.840;2024-03-02T06:07:35;22.60;;;15.90;;
25045;SDS011;13044;49.304;12.840;2024-03-02T06:10:02;24.95;;;16.20;;
25045;SDS011;13044;49.304;12.840;2024-03-02T06:12:30;22.77;;;15.30;;
25045;SDS011;13044;49.304;12.840;2024-03-02T06:14:58;23.48;;;15.30;;
25045;SDS011;13044;49.304;12.840;2024-03-02T06:17:25;29.73;;;20.42;;
25045;SDS011;13044;49.304;12.840;2024-03-02T06:19:52;24.48;;;17.35;;
25045;SDS011;13044;49.304;12.840;2024-03-02T06:22:19;25.23;;;16.67;;
25045;SDS011;13044;49.304;12.840;2024-03-02T06:24:47;24.50;;;15.98;;
25045;SDS011;13044;49.304;12.840;2024-03-02T06:27:14;26.67;;;16.98;;
25045;SDS011;13044;49.304;12.840;2024-03-02T06:29:41;24.52;;;15.82;;
25045;SDS011;13044;49.304;12.840;2024-03-02T06:32:08;24.15;;;15.30;;
25045;SDS011;13044;49.304;12.840;2024-03-02T06:34:35;29.35;;;18.13;;
25045;SDS011;13044;49.304;12.840;2024-03-02T06:37:02;26.13;;;17.73;;
25045;SDS011;13044;49.304;12.840;2024-03-02T06:39:29;25.92;;;17.00;;
25045;SDS011;13044;49.304;12.840;2024-03-02T06:41:57;25.15;;;16.38;;
25045;SDS011;13044;49.304;12.840;2024-03-02T06:44:24;26.17;;;17.00;;
25045;SDS011;13044;49.304;12.840;2024-03-02T06:46:51;23.95;;;15.88;;
25045;SDS011;13044;49.304;12.840;2024-03-02T06:49:18;23.85;;;15.70;;
25045;SDS011;13044;49.304;12.840;2024-03-02T06:51:44;28.48;;;18.38;;
25045;SDS011;13044;49.304;12.840;2024-03-02T06:54:11;26.55;;;16.67;;
25045;SDS011;13044;49.304;12.840;2024-03-02T06:56:38;29.10;;;18.45;;
25045;SDS011;13044;49.304;12.840;2024-03-02T06:59:05;27.63;;;18.05;;
25045;SDS011;13044;49.304;12.840;2024-03-02T07:01:32;31.25;;;18.65;;
25045;SDS011;13044;49.304;12.840;2024-03-02T07:03:59;31.23;;;18.48;;
25045;SDS011;13044;49.304;12.840;2024-03-02T07:06:26;29.42;;;18.35;;
25045;SDS011;13044;49.304;12.840;2024-03-02T07:08:53;33.92;;;21.25;;
25045;SDS011;13044;49.304;12.840;2024-03-02T07:11:19;32.25;;;19.77;;
25045;SDS011;13044;49.304;12.840;2024-03-02T07:13:46;30.15;;;18.75;;
25045;SDS011;13044;49.304;12.840;2024-03-02T07:16:13;30.25;;;19.63;;
25045;SDS011;13044;49.304;12.840;2024-03-02T07:18:58;29.67;;;18.35;;
25045;SDS011;13044;49.304;12.840;2024-03-02T07:21:27;30.02;;;18.02;;
25045;SDS011;13044;49.304;12.840;2024-03-02T07:23:54;25.50;;;16.90;;
25045;SDS011;13044;49.304;12.840;2024-03-02T07:26:21;33.97;;;20.70;;
25045;SDS011;13044;49.304;12.840;2024-03-02T07:28:52;32.33;;;20.25;;
25045;SDS011;13044;49.304;12.840;2024-03-02T07:31:19;34.47;;;19.80;;
25045;SDS011;13044;49.304;12.840;2024-03-02T07:33:46;31.48;;;18.67;;
25045;SDS011;13044;49.304;12.840;2024-03-02T07:36:13;31.92;;;19.60;;
25045;SDS011;13044;49.304;12.840;2024-03-02T07:38:40;28.90;;;18.60;;
25045;SDS011;13044;49.304;12.840;2024-03-02T07:41:09;37.85;;;21.50;;
25045;SDS011;13044;49.304;12.840;2024-03-02T07:43:37;39.97;;;22.38;;
25045;SDS011;13044;49.304;12.840;2024-03-02T07:46:04;39.10;;;23.25;;
25045;SDS011;13044;49.304;12.840;2024-03-02T07:48:32;34.72;;;21.50;;
25045;SDS011;13044;49.304;12.840;2024-03-02T07:50:59;33.33;;;19.42;;
25045;SDS011;13044;49.304;12.840;2024-03-02T07:53:26;32.97;;;19.52;;
25045;SDS011;13044;49.304;12.840;2024-03-02T07:55:53;35.88;;;21.75;;
25045;SDS011;13044;49.304;12.840;2024-03-02T07:58:20;40.75;;;23.23;;
25045;SDS011;13044;49.304;12.840;2024-03-02T08:00:47;38.63;;;21.30;;
25045;SDS011;13044;49.304;12.840;2024-03-02T08:03:17;42.17;;;23.80;;
25045;SDS011;13044;49.304;12.840;2024-03-02T08:05:44;35.38;;;21.33;;
25045;SDS011;13044;49.304;12.840;2024-03-02T08:08:12;35.85;;;19.98;;
25045;SDS011;13044;49.304;12.840;2024-03-02T08:10:39;34.25;;;20.98;;
25045;SDS011;13044;49.304;12.840;2024-03-02T08:13:05;27.98;;;16.92;;
25045;SDS011;13044;49.304;12.840;2024-03-02T08:15:32;31.33;;;18.55;;
25045;SDS011;13044;49.304;12.840;2024-03-02T08:17:59;28.58;;;18.15;;
25045;SDS011;13044;49.304;12.840;2024-03-02T08:20:26;32.03;;;18.92;;
25045;SDS011;13044;49.304;12.840;2024-03-02T08:22:54;28.15;;;18.17;;
25045;SDS011;13044;49.304;12.840;2024-03-02T08:25:21;29.95;;;19.08;;
25045;SDS011;13044;49.304;12.840;2024-03-02T08:27:48;26.38;;;16.70;;
25045;SDS011;13044;49.304;12.840;2024-03-02T08:30:15;26.48;;;17.38;;
25045;SDS011;13044;49.304;12.840;2024-03-02T08:32:44;24.08;;;15.77;;
25045;SDS011;13044;49.304;12.840;2024-03-02T08:35:13;27.88;;;17.95;;
25045;SDS011;13044;49.304;12.840;2024-03-02T08:37:41;31.10;;;20.27;;
25045;SDS011;13044;49.304;12.840;2024-03-02T08:40:10;23.05;;;15.20;;
25045;SDS011;13044;49.304;12.840;2024-03-02T08:42:41;28.40;;;17.48;;
25045;SDS011;13044;49.304;12.840;2024-03-02T08:45:08;27.30;;;17.48;;
25045;SDS011;13044;49.304;12.840;2024-03-02T08:47:35;29.30;;;17.35;;
25045;SDS011;13044;49.304;12.840;2024-03-02T08:50:02;70.95;;;33.42;;
25045;SDS011;13044;49.304;12.840;2024-03-02T08:52:31;38.63;;;21.75;;
25045;SDS011;13044;49.304;12.840;2024-03-02T08:54:58;33.55;;;19.33;;
25045;SDS011;13044;49.304;12.840;2024-03-02T08:57:25;31.25;;;20.02;;
25045;SDS011;13044;49.304;12.840;2024-03-02T08:59:52;27.63;;;17.55;;
25045;SDS011;13044;49.304;12.840;2024-03-02T09:02:19;26.08;;;16.48;;
25045;SDS011;13044;49.304;12.840;2024-03-02T09:04:46;27.65;;;16.58;;
25045;SDS011;13044;49.304;12.840;2024-03-02T09:07:13;23.38;;;14.82;;
25045;SDS011;13044;49.304;12.840;2024-03-02T09:09:40;27.40;;;17.70;;
25045;SDS011;13044;49.304;12.840;2024-03-02T09:12:07;29.75;;;18.05;;
25045;SDS011;13044;49.304;12.840;2024-03-02T09:14:34;25.42;;;16.15;;
25045;SDS011;13044;49.304;12.840;2024-03-02T09:17:03;30.73;;;19.23;;
25045;SDS011;13044;49.304;12.840;2024-03-02T09:19:30;25.05;;;16.65;;
25045;SDS011;13044;49.304;12.840;2024-03-02T09:21:57;24.70;;;17.15;;
25045;SDS011;13044;49.304;12.840;2024-03-02T09:24:25;24.20;;;15.65;;
25045;SDS011;13044;49.304;12.840;2024-03-02T09:26:52;21.95;;;14.73;;
25045;SDS011;13044;49.304;12.840;2024-03-02T09:29:19;25.83;;;15.13;;
25045;SDS011;13044;49.304;12.840;2024-03-02T09:31:47;25.70;;;16.50;;
25045;SDS011;13044;49.304;12.840;2024-03-02T09:34:13;23.60;;;15.88;;
25045;SDS011;13044;49.304;12.840;2024-03-02T09:36:42;27.65;;;17.70;;
25045;SDS011;13044;49.304;12.840;2024-03-02T09:39:09;30.58;;;18.15;;
25045;SDS011;13044;49.304;12.840;2024-03-02T09:41:37;22.95;;;15.80;;
25045;SDS011;13044;49.304;12.840;2024-03-02T09:44:04;23.15;;;15.68;;
25045;SDS011;13044;49.304;12.840;2024-03-02T09:46:32;28.10;;;16.88;;
25045;SDS011;13044;49.304;12.840;2024-03-02T09:48:59;25.23;;;16.45;;
25045;SDS011;13044;49.304;12.840;2024-03-02T09:51:26;24.65;;;16.08;;
25045;SDS011;13044;49.304;12.840;2024-03-02T09:53:53;24.30;;;15.18;;
25045;SDS011;13044;49.304;12.840;2024-03-02T09:56:28;21.60;;;14.15;;
25045;SDS011;13044;49.304;12.840;2024-03-02T09:58:55;19.98;;;14.13;;
25045;SDS011;13044;49.304;12.840;2024-03-02T10:01:22;22.55;;;14.68;;
25045;SDS011;13044;49.304;12.840;2024-03-02T10:03:49;19.38;;;13.95;;
25045;SDS011;13044;49.304;12.840;2024-03-02T10:06:21;23.48;;;14.48;;
25045;SDS011;13044;49.304;12.840;2024-03-02T10:08:49;21.03;;;13.77;;
25045;SDS011;13044;49.304;12.840;2024-03-02T10:11:32;23.45;;;17.55;;
25045;SDS011;13044;49.304;12.840;2024-03-02T10:14:10;20.80;;;14.77;;
25045;SDS011;13044;49.304;12.840;2024-03-02T10:16:40;20.65;;;14.15;;
25045;SDS011;13044;49.304;12.840;2024-03-02T10:19:15;19.50;;;14.15;;
25045;SDS011;13044;49.304;12.840;2024-03-02T10:21:51;24.67;;;16.13;;
25045;SDS011;13044;49.304;12.840;2024-03-02T10:24:21;23.20;;;16.05;;
25045;SDS011;13044;49.304;12.840;2024-03-02T10:26:49;21.88;;;14.90;;
25045;SDS011;13044;49.304;12.840;2024-03-02T10:29:16;21.20;;;14.57;;
25045;SDS011;13044;49.304;12.840;2024-03-02T10:31:44;22.00;;;14.15;;
25045;SDS011;13044;49.304;12.840;2024-03-02T10:34:12;20.10;;;14.48;;
25045;SDS011;13044;49.304;12.840;2024-03-02T10:36:40;19.75;;;14.10;;
25045;SDS011;13044;49.304;12.840;2024-03-02T10:39:09;19.90;;;14.07;;
25045;SDS011;13044;49.304;12.840;2024-03-02T10:41:36;19.05;;;12.98;;
25045;SDS011;13044;49.304;12.840;2024-03-02T10:44:08;20.90;;;14.35;;
25045;SDS011;13044;49.304;12.840;2024-03-02T10:46:37;21.38;;;14.38;;
25045;SDS011;13044;49.304;12.840;2024-03-02T10:49:04;20.65;;;14.48;;
25045;SDS011;13044;49.304;12.840;2024-03-02T10:51:34;24.15;;;14.60;;
25045;SDS011;13044;49.304;12.840;2024-03-02T10:54:03;20.90;;;14.73;;
25045;SDS011;13044;49.304;12.840;2024-03-02T10:56:32;22.17;;;14.90;;
25045;SDS011;13044;49.304;12.840;2024-03-02T10:59:24;24.52;;;14.88;;
25045;SDS011;13044;49.304;12.840;2024-03-02T11:02:02;20.85;;;14.10;;
25045;SDS011;13044;49.304;12.840;2024-03-02T11:04:31;20.52;;;14.25;;
25045;SDS011;13044;49.304;12.840;2024-03-02T11:07:05;22.85;;;14.98;;
25045;SDS011;13044;49.304;12.840;2024-03-02T11:09:37;19.10;;;13.63;;
25045;SDS011;13044;49.304;12.840;2024-03-02T11:14:55;20.63;;;13.55;;
25045;SDS011;13044;49.304;12.840;2024-03-02T11:17:22;23.27;;;15.10;;
25045;SDS011;13044;49.304;12.840;2024-03-02T11:19:51;19.55;;;14.18;;
25045;SDS011;13044;49.304;12.840;2024-03-02T11:22:18;21.65;;;14.23;;
25045;SDS011;13044;49.304;12.840;2024-03-02T11:24:48;18.55;;;12.95;;
25045;SDS011;13044;49.304;12.840;2024-03-02T11:32:58;18.63;;;13.25;;
25045;SDS011;13044;49.304;12.840;2024-03-02T11:35:35;19.48;;;13.80;;
25045;SDS011;13044;49.304;12.840;2024-03-02T11:38:15;20.63;;;13.32;;
25045;SDS011;13044;49.304;12.840;2024-03-02T11:40:44;17.70;;;12.52;;
25045;SDS011;13044;49.304;12.840;2024-03-02T11:43:11;16.92;;;12.18;;
25045;SDS011;13044;49.304;12.840;2024-03-02T11:45:38;19.00;;;12.50;;
25045;SDS011;13044;49.304;12.840;2024-03-02T11:48:12;19.70;;;13.38;;
25045;SDS011;13044;49.304;12.840;2024-03-02T11:50:49;17.80;;;12.18;;
25045;SDS011;13044;49.304;12.840;2024-03-02T11:53:17;17.17;;;11.55;;
25045;SDS011;13044;49.304;12.840;2024-03-02T11:55:45;18.00;;;12.68;;
25045;SDS011;13044;49.304;12.840;2024-03-02T11:58:14;18.08;;;11.75;;
25045;SDS011;13044;49.304;12.840;2024-03-02T12:00:50;18.08;;;12.50;;
25045;SDS011;13044;49.304;12.840;2024-03-02T12:03:18;20.40;;;11.45;;
25045;SDS011;13044;49.304;12.840;2024-03-02T12:05:52;16.88;;;11.18;;
25045;SDS011;13044;49.304;12.840;2024-03-02T12:08:20;16.92;;;10.80;;
25045;SDS011;13044;49.304;12.840;2024-03-02T12:11:00;14.73;;;10.25;;
25045;SDS011;13044;49.304;12.840;2024-03-02T12:13:30;14.15;;;10.43;;
25045;SDS011;13044;49.304;12.840;2024-03-02T12:15:57;16.40;;;10.82;;
25045;SDS011;13044;49.304;12.840;2024-03-02T12:18:25;15.27;;;10.68;;
25045;SDS011;13044;49.304;12.840;2024-03-02T12:20:53;14.98;;;9.98;;
25045;SDS011;13044;49.304;12.840;2024-03-02T12:23:24;14.18;;;10.32;;
25045;SDS011;13044;49.304;12.840;2024-03-02T12:25:51;16.45;;;11.32;;
25045;SDS011;13044;49.304;12.840;2024-03-02T12:28:19;14.93;;;10.68;;
25045;SDS011;13044;49.304;12.840;2024-03-02T12:30:46;12.68;;;9.15;;
25045;SDS011;13044;49.304;12.840;2024-03-02T12:33:14;14.48;;;9.48;;
25045;SDS011;13044;49.304;12.840;2024-03-02T12:35:41;12.75;;;8.48;;
25045;SDS011;13044;49.304;12.840;2024-03-02T12:38:09;12.57;;;9.07;;
25045;SDS011;13044;49.304;12.840;2024-03-02T12:40:37;13.38;;;9.25;;
25045;SDS011;13044;49.304;12.840;2024-03-02T12:43:05;13.05;;;9.00;;
25045;SDS011;13044;49.304;12.840;2024-03-02T12:45:33;12.90;;;9.70;;
25045;SDS011;13044;49.304;12.840;2024-03-02T12:48:01;12.85;;;9.63;;
25045;SDS011;13044;49.304;12.840;2024-03-02T12:50:30;12.13;;;9.18;;
25045;SDS011;13044;49.304;12.840;2024-03-02T12:52:59;11.75;;;8.80;;
25045;SDS011;13044;49.304;12.840;2024-03-02T12:55:26;13.52;;;8.48;;
25045;SDS011;13044;49.304;12.840;2024-03-02T12:57:55;11.07;;;8.05;;
25045;SDS011;13044;49.304;12.840;2024-03-02T13:00:23;11.82;;;8.27;;
25045;SDS011;13044;49.304;12.840;2024-03-02T13:02:50;11.23;;;7.97;;
25045;SDS011;13044;49.304;12.840;2024-03-02T13:05:18;10.25;;;7.22;;
25045;SDS011;13044;49.304;12.840;2024-03-02T13:07:47;10.25;;;7.80;;
25045;SDS011;13044;49.304;12.840;2024-03-02T13:10:15;9.25;;;6.93;;
25045;SDS011;13044;49.304;12.840;2024-03-02T13:12:44;9.43;;;7.10;;
25045;SDS011;13044;49.304;12.840;2024-03-02T13:15:11;11.15;;;7.45;;
25045;SDS011;13044;49.304;12.840;2024-03-02T13:17:44;12.18;;;7.97;;
25045;SDS011;13044;49.304;12.840;2024-03-02T13:20:12;10.05;;;6.78;;
25045;SDS011;13044;49.304;12.840;2024-03-02T13:22:40;10.30;;;6.90;;
25045;SDS011;13044;49.304;12.840;2024-03-02T13:25:07;9.63;;;7.00;;
25045;SDS011;13044;49.304;12.840;2024-03-02T13:27:36;13.02;;;7.75;;
25045;SDS011;13044;49.304;12.840;2024-03-02T13:30:03;10.55;;;7.47;;
25045;SDS011;13044;49.304;12.840;2024-03-02T13:32:35;11.32;;;8.40;;
25045;SDS011;13044;49.304;12.840;2024-03-02T13:35:02;11.82;;;8.43;;
25045;SDS011;13044;49.304;12.840;2024-03-02T13:37:29;9.95;;;7.32;;
25045;SDS011;13044;49.304;12.840;2024-03-02T13:39:56;12.02;;;7.60;;
25045;SDS011;13044;49.304;12.840;2024-03-02T13:42:23;12.00;;;7.43;;
25045;SDS011;13044;49.304;12.840;2024-03-02T13:44:52;8.60;;;6.25;;
25045;SDS011;13044;49.304;12.840;2024-03-02T13:47:19;12.10;;;7.47;;
25045;SDS011;13044;49.304;12.840;2024-03-02T13:49:47;9.48;;;6.68;;
25045;SDS011;13044;49.304;12.840;2024-03-02T13:52:15;9.95;;;6.55;;
25045;SDS011;13044;49.304;12.840;2024-03-02T13:54:45;10.13;;;7.40;;
25045;SDS011;13044;49.304;12.840;2024-03-02T13:57:14;13.43;;;8.38;;
25045;SDS011;13044;49.304;12.840;2024-03-02T13:59:41;12.80;;;7.95;;
25045;SDS011;13044;49.304;12.840;2024-03-02T14:02:10;12.90;;;7.57;;
25045;SDS011;13044;49.304;12.840;2024-03-02T14:04:38;9.98;;;7.07;;
25045;SDS011;13044;49.304;12.840;2024-03-02T14:07:06;9.90;;;7.30;;
25045;SDS011;13044;49.304;12.840;2024-03-02T14:09:34;12.85;;;8.27;;
25045;SDS011;13044;49.304;12.840;2024-03-02T14:12:01;10.23;;;7.45;;
25045;SDS011;13044;49.304;12.840;2024-03-02T14:14:29;12.90;;;7.72;;
25045;SDS011;13044;49.304;12.840;2024-03-02T14:16:56;11.10;;;8.07;;
25045;SDS011;13044;49.304;12.840;2024-03-02T14:19:26;12.07;;;8.50;;
25045;SDS011;13044;49.304;12.840;2024-03-02T14:21:53;11.98;;;7.93;;
25045;SDS011;13044;49.304;12.840;2024-03-02T14:24:21;11.45;;;8.18;;
25045;SDS011;13044;49.304;12.840;2024-03-02T14:26:52;12.02;;;8.23;;
25045;SDS011;13044;49.304;12.840;2024-03-02T14:29:28;11.52;;;7.60;;
25045;SDS011;13044;49.304;12.840;2024-03-02T14:31:55;11.82;;;8.02;;
25045;SDS011;13044;49.304;12.840;2024-03-02T14:34:22;11.18;;;8.60;;